Farber, MO (63345)

6:55 AM CDT on August 01, 2014 (GMT -0500)
KMOMEXIC4 Elev 778 ft | 39.17 °N, 91.87 °W | Change Station

Current weather conditions updated 14 minutes ago

Clear
Clear
64.5 °F
Feels Like 64.5 °F
N
0.0
Wind Variable Wind from NE
Gusts 0.0 mph

Today is forecast to be nearly the same temperature as yesterday. Thunderstorms developing in the afternoon.

Today
High -- | Low -- °F
--% Chance of Precip.
Yesterday
High -- | Low -- °F
Precip. -- in
6:06 AM 8:18 PM
Waxing Crescent, 26% visible
Pressure 30.08 in
Visibility 10.0 miles
Clouds Clear
Dew Point 61 °F
Humidity 88%
Rainfall 0.00 in
Snow Depth Not available.
UV 0 out of 12
Pollen 6.80 out of 12
Air Quality Not available.
Flu Activity Not available.
METAR KHAE 011135Z AUTO 00000KT 10SM CLR 18/16 A3008 RMK AO2

More Conditions Fewer Conditions

Pressure 30.08 in
Visibility 10.0 miles
Clouds Clear
Dew Point 61 °F
Humidity 88%
Rainfall 0.00 in
Snow Depth Not available.
UV 0 out of 12
Pollen 6.80 out of 12
Air Quality Not available.
Flu Activity Not available.
METAR KHAE 011135Z AUTO 00000KT 10SM CLR 18/16 A3008 RMK AO2

More Conditions Fewer Conditions

10-Day Weather Forecast

Almanac

Astronomy

Aug. 01, 2014 Rise Set
Actual Time 6:06 AM CDT 8:18 PM CDT
Civil Twilight 5:36 AM CDT 8:48 PM CDT
Nautical Twilight 4:59 AM CDT 9:24 PM CDT
Astronomical Twilight 4:19 AM CDT 10:04 PM CDT
Moon 11:28 AM CDT 11:05 PM CDT
Length of Visible Light 15h 11m
Length of Day
14h 11m
Tomorrow will be 1m 57s shorter.
Waxing Crescent, 26% of the Moon is Illuminated
Today
Waxing Crescent
Aug 3
First Quarter
Aug 10
Full
Aug 17
Last Quarter
Aug 25
New

Today's Extremes

State Highs State Lows

Community

WunderPhotos

Upload Photos

1,739,538 photos uploaded!

Nearby

Snow Depth

Station Depth Elevation
No new snow has been reported.

Earthquake Activity

City Distance Mag. Time & Date
No recent earthquake activity has been reported nearby.
Minimum magnitude displayed is 2.5.

Coastal Water Temperatures

Place Temperature
No Stations Reporting

Nearby Weather Stations

Station Location Temp. Dew Point Humidity Wind Precip. Elev Updated Type
Mexico, MO 64.5 °F 61 °F 88% NE  at  0.0 mph 0.00 in / hr 778 ft 6:41 AM CDT Normal
Near Lakeview Lake, Mexico, MO 64.0 °F 60 °F 88% South  at  0.0 mph 0.00 in / hr 817 ft 6:55 AM CDT Rapid Fire
ALSAT Wireless, Montgomery City, MO 63.4 °F 62 °F 95% South  at  0.0 mph 0.00 in / hr 810 ft 6:55 AM CDT Rapid Fire

Show More Stations Show Fewer Stations